createdAt,value
2023-03-22T00:02:23.158Z,8.98
2023-03-22T00:04:49.945Z,9.01
2023-03-22T00:07:16.731Z,8.51
2023-03-22T00:09:43.556Z,9.07
2023-03-22T00:12:10.487Z,8.47
2023-03-22T00:14:37.316Z,8.60
2023-03-22T00:17:04.204Z,8.50
2023-03-22T00:19:34.177Z,8.74
2023-03-22T00:22:01.348Z,8.69
2023-03-22T00:24:28.047Z,8.99
2023-03-22T00:26:54.779Z,8.49
2023-03-22T00:29:22.928Z,8.66
2023-03-22T00:31:50.346Z,8.51
2023-03-22T00:34:17.076Z,8.49
2023-03-22T00:36:43.864Z,8.49
2023-03-22T00:39:10.666Z,8.48
2023-03-22T00:41:37.406Z,8.30
2023-03-22T00:44:04.124Z,8.30
2023-03-22T00:46:30.849Z,8.28
2023-03-22T00:48:57.586Z,8.50
2023-03-22T00:51:24.587Z,8.31
2023-03-22T00:53:52.429Z,8.27
2023-03-22T00:56:19.668Z,8.51
2023-03-22T00:58:46.458Z,8.44
2023-03-22T01:01:15.904Z,8.06
2023-03-22T01:03:43.864Z,8.47
2023-03-22T01:06:11.628Z,8.03
2023-03-22T01:08:39.487Z,8.48
2023-03-22T01:11:07.708Z,8.28
2023-03-22T01:13:37.881Z,8.61
2023-03-22T01:16:06.345Z,8.21
2023-03-22T01:18:33.113Z,8.25
2023-03-22T01:21:00.508Z,8.39
2023-03-22T01:23:27.279Z,8.13
2023-03-22T01:25:53.962Z,8.12
2023-03-22T01:28:20.888Z,8.24
2023-03-22T01:30:47.705Z,8.26
2023-03-22T01:33:14.464Z,8.42
2023-03-22T01:35:41.201Z,8.31
2023-03-22T01:38:07.920Z,8.27
2023-03-22T01:40:35.117Z,8.62
2023-03-22T01:43:01.937Z,8.48
2023-03-22T01:45:42.606Z,8.23
2023-03-22T01:48:27.302Z,8.35
2023-03-22T01:51:04.577Z,8.50
2023-03-22T01:53:36.705Z,8.28
2023-03-22T01:56:03.890Z,8.58
2023-03-22T01:58:32.048Z,8.24
2023-03-22T02:00:59.524Z,8.51
2023-03-22T02:03:36.965Z,8.60
2023-03-22T02:06:03.796Z,8.52
2023-03-22T02:08:32.445Z,8.45
2023-03-22T02:11:01.630Z,8.65
2023-03-22T02:13:56.232Z,8.59
2023-03-22T02:16:38.485Z,8.43
2023-03-22T02:19:23.880Z,8.78
2023-03-22T02:22:22.042Z,8.69
2023-03-22T02:25:08.018Z,8.82
2023-03-22T02:28:05.076Z,8.65
2023-03-22T02:30:50.020Z,8.63
2023-03-22T02:33:41.573Z,8.63
2023-03-22T02:36:35.556Z,8.26
2023-03-22T02:39:23.472Z,8.26
2023-03-22T02:42:06.974Z,8.83
2023-03-22T02:44:52.329Z,8.45
2023-03-22T02:47:25.565Z,8.18
2023-03-22T02:50:06.268Z,8.29
2023-03-22T02:52:40.943Z,8.16
2023-03-22T02:55:24.243Z,8.68
2023-03-22T02:58:03.695Z,8.72
2023-03-22T03:00:33.402Z,8.45
2023-03-22T03:03:11.489Z,8.82
2023-03-22T03:05:44.975Z,8.69
2023-03-22T03:08:14.040Z,8.74
2023-03-22T03:10:42.373Z,8.29
2023-03-22T03:13:17.387Z,8.82
2023-03-22T03:15:48.875Z,8.22
2023-03-22T03:18:35.229Z,8.68
2023-03-22T03:21:17.900Z,8.71
2023-03-22T03:24:08.870Z,8.76
2023-03-22T03:26:42.030Z,8.85
2023-03-22T03:29:50.803Z,8.65
2023-03-22T03:32:35.325Z,8.68
2023-03-22T03:35:06.879Z,8.46
2023-03-22T03:37:48.423Z,8.74
2023-03-22T03:40:20.954Z,8.68
2023-03-22T03:42:52.826Z,8.78
2023-03-22T03:45:22.306Z,8.63
2023-03-22T03:47:57.040Z,8.52
2023-03-22T03:50:26.012Z,8.58
2023-03-22T03:52:54.829Z,8.82
2023-03-22T03:55:22.793Z,8.76
2023-03-22T03:57:49.578Z,8.85
2023-03-22T04:00:17.753Z,8.71
2023-03-22T04:02:45.123Z,8.70
2023-03-22T04:05:13.521Z,8.81
2023-03-22T04:07:40.681Z,8.79
2023-03-22T04:10:08.626Z,8.80
2023-03-22T04:12:35.753Z,8.39
2023-03-22T04:15:02.714Z,8.27
2023-03-22T04:17:29.461Z,8.33
2023-03-22T04:19:56.753Z,8.70
2023-03-22T04:22:25.156Z,8.35
2023-03-22T04:24:51.871Z,8.27
2023-03-22T04:27:20.611Z,8.22
2023-03-22T04:29:51.286Z,8.69
2023-03-22T04:32:19.236Z,8.72
2023-03-22T04:34:49.203Z,8.65
2023-03-22T04:37:16.722Z,8.73
2023-03-22T04:39:44.047Z,8.79
2023-03-22T04:42:10.847Z,8.35
2023-03-22T04:44:37.565Z,8.55
2023-03-22T04:47:04.533Z,8.60
2023-03-22T04:49:31.581Z,8.65
2023-03-22T04:51:58.603Z,8.83
2023-03-22T04:54:25.849Z,8.49
2023-03-22T04:56:52.888Z,8.52
2023-03-22T04:59:20.456Z,8.82
2023-03-22T05:01:48.507Z,8.67
2023-03-22T05:04:16.628Z,8.80
2023-03-22T05:06:43.459Z,8.67
2023-03-22T05:09:10.590Z,8.42
2023-03-22T05:11:37.809Z,8.71
2023-03-22T05:14:04.900Z,8.89
2023-03-22T05:16:31.713Z,9.13
2023-03-22T05:18:58.557Z,9.11
2023-03-22T05:21:28.625Z,9.08
2023-03-22T05:23:58.106Z,9.34
2023-03-22T05:26:26.596Z,9.39
2023-03-22T05:28:54.395Z,9.58
2023-03-22T05:31:22.399Z,9.52
2023-03-22T05:33:50.649Z,9.36
2023-03-22T05:36:19.311Z,9.62
2023-03-22T05:38:46.818Z,9.50
2023-03-22T05:41:14.582Z,9.41
2023-03-22T05:43:42.085Z,9.58
2023-03-22T05:46:11.205Z,9.72
2023-03-22T05:48:39.869Z,9.84
2023-03-22T05:51:07.861Z,9.75
2023-03-22T05:53:35.461Z,9.90
2023-03-22T05:56:02.362Z,9.57
2023-03-22T05:58:30.951Z,9.47
2023-03-22T06:01:01.204Z,9.43
2023-03-22T06:03:28.654Z,9.42
2023-03-22T06:05:55.437Z,9.30
2023-03-22T06:08:26.558Z,9.54
2023-03-22T06:10:54.249Z,9.54
2023-03-22T06:13:21.368Z,9.04
2023-03-22T06:15:48.262Z,8.70
2023-03-22T06:18:14.995Z,8.60
2023-03-22T06:20:42.221Z,8.62
2023-03-22T06:23:09.113Z,8.49
2023-03-22T06:25:35.940Z,8.20
2023-03-22T06:28:02.995Z,8.63
2023-03-22T06:30:29.798Z,8.52
2023-03-22T06:33:00.667Z,8.28
2023-03-22T06:35:27.939Z,8.49
2023-03-22T06:37:54.739Z,8.18
2023-03-22T06:40:21.522Z,8.12
2023-03-22T06:42:48.429Z,8.26
2023-03-22T06:45:16.648Z,7.97
2023-03-22T06:47:44.575Z,8.31
2023-03-22T06:50:12.048Z,8.47
2023-03-22T06:52:38.853Z,8.31
2023-03-22T06:55:06.020Z,8.21
2023-03-22T06:57:32.795Z,8.30
2023-03-22T06:59:59.486Z,8.34
2023-03-22T07:02:26.206Z,8.35
2023-03-22T07:04:53.023Z,8.63
2023-03-22T07:07:19.722Z,9.06
2023-03-22T07:09:46.542Z,8.97
2023-03-22T07:12:13.233Z,8.79
2023-03-22T07:14:40.492Z,8.93
2023-03-22T07:17:07.250Z,8.80
2023-03-22T07:19:34.265Z,9.84
2023-03-22T07:22:00.992Z,9.87
2023-03-22T07:24:27.774Z,9.99
2023-03-22T07:26:54.479Z,9.82
2023-03-22T07:29:21.569Z,10.24
2023-03-22T07:31:48.451Z,10.39
2023-03-22T07:34:16.397Z,10.11
2023-03-22T07:36:43.259Z,10.65
2023-03-22T07:39:10.067Z,10.45
2023-03-22T07:41:36.890Z,9.98
2023-03-22T07:44:16.978Z,9.84
2023-03-22T07:46:44.745Z,10.04
2023-03-22T07:49:11.563Z,10.18
2023-03-22T07:51:38.317Z,10.10
2023-03-22T07:54:07.582Z,10.43
2023-03-22T07:56:34.589Z,10.54
2023-03-22T07:59:01.416Z,10.96
2023-03-22T08:01:28.462Z,10.89
2023-03-22T08:03:55.329Z,10.74
2023-03-22T08:06:22.058Z,10.47
2023-03-22T08:08:48.765Z,11.25
2023-03-22T08:11:15.607Z,11.02
2023-03-22T08:13:42.346Z,10.99
2023-03-22T08:16:09.112Z,10.83
2023-03-22T08:18:36.250Z,10.91
2023-03-22T08:21:02.986Z,11.40
2023-03-22T08:23:41.037Z,10.63
2023-03-22T08:26:10.444Z,11.15
2023-03-22T08:28:37.540Z,10.95
2023-03-22T08:31:13.917Z,10.83
2023-03-22T08:33:42.980Z,10.66
2023-03-22T08:36:12.312Z,11.08
2023-03-22T08:38:38.984Z,10.38
2023-03-22T08:41:05.951Z,10.71
2023-03-22T08:43:32.641Z,10.77
2023-03-22T08:45:59.666Z,10.77
2023-03-22T08:48:29.225Z,10.77
2023-03-22T08:50:56.334Z,11.04
2023-03-22T08:53:23.614Z,10.51
2023-03-22T08:55:51.077Z,10.81
2023-03-22T08:58:20.087Z,11.23
2023-03-22T09:00:49.503Z,10.75
2023-03-22T09:03:16.988Z,10.91
2023-03-22T09:05:44.003Z,10.63
2023-03-22T09:08:18.538Z,10.73
2023-03-22T09:10:52.656Z,10.98
2023-03-22T09:13:20.511Z,10.99
2023-03-22T09:15:47.653Z,10.37
2023-03-22T09:18:15.442Z,10.23
2023-03-22T09:20:43.802Z,10.37
2023-03-22T09:23:10.536Z,10.12
2023-03-22T09:25:37.802Z,10.03
2023-03-22T09:28:05.602Z,10.64
2023-03-22T09:30:32.242Z,10.42
2023-03-22T09:32:58.930Z,10.33
2023-03-22T09:35:26.074Z,10.23
2023-03-22T09:37:56.150Z,9.97
2023-03-22T09:40:28.939Z,9.98
2023-03-22T09:42:59.193Z,10.36
2023-03-22T09:45:38.471Z,9.94
2023-03-22T09:48:21.210Z,10.10
2023-03-22T09:50:51.536Z,10.31
2023-03-22T09:53:18.636Z,10.71
2023-03-22T09:55:52.872Z,10.63
2023-03-22T09:58:33.135Z,10.52
2023-03-22T10:01:12.428Z,11.11
2023-03-22T10:04:02.346Z,10.97
2023-03-22T10:06:30.788Z,10.82
2023-03-22T10:09:34.625Z,11.52
2023-03-22T10:12:22.541Z,10.50
2023-03-22T10:14:57.812Z,11.23
2023-03-22T10:17:27.212Z,11.10
2023-03-22T10:19:59.150Z,11.07
2023-03-22T10:22:33.210Z,11.26
2023-03-22T10:25:01.030Z,11.66
2023-03-22T10:27:30.180Z,11.59
2023-03-22T10:30:04.499Z,11.59
2023-03-22T10:32:57.059Z,11.37
2023-03-22T10:35:24.683Z,11.62
2023-03-22T10:37:52.777Z,11.43
2023-03-22T10:40:32.972Z,11.58
2023-03-22T10:43:11.868Z,11.73
2023-03-22T10:45:39.676Z,11.76
2023-03-22T10:48:29.990Z,11.30
2023-03-22T10:50:58.991Z,11.24
2023-03-22T10:53:33.391Z,11.50
2023-03-22T10:56:00.365Z,11.54
2023-03-22T10:58:32.597Z,11.25
2023-03-22T11:01:05.174Z,11.20
2023-03-22T11:03:44.650Z,11.92
2023-03-22T11:06:14.697Z,11.67
2023-03-22T11:08:42.850Z,11.98
2023-03-22T11:11:40.347Z,11.85
2023-03-22T11:14:16.975Z,12.09
2023-03-22T11:16:53.595Z,12.11
2023-03-22T11:19:31.593Z,11.47
2023-03-22T11:22:00.553Z,11.58
2023-03-22T11:24:30.330Z,11.75
2023-03-22T11:27:03.407Z,12.09
2023-03-22T11:29:46.662Z,12.12
2023-03-22T11:32:37.362Z,12.27
2023-03-22T11:35:16.225Z,12.55
2023-03-22T11:37:45.181Z,12.33
2023-03-22T11:40:33.430Z,12.30
2023-03-22T11:43:27.075Z,12.52
2023-03-22T11:45:56.504Z,12.48
2023-03-22T11:48:27.534Z,12.14
2023-03-22T11:50:59.725Z,12.51
2023-03-22T11:53:28.381Z,12.08
2023-03-22T11:55:57.815Z,12.32
2023-03-22T11:58:27.142Z,12.82
2023-03-22T12:01:01.533Z,12.60
2023-03-22T12:03:37.595Z,12.54
2023-03-22T12:06:16.751Z,12.79
2023-03-22T12:08:49.557Z,12.90
2023-03-22T12:11:40.179Z,12.85
2023-03-22T12:14:16.216Z,12.88
2023-03-22T12:17:11.090Z,13.28
2023-03-22T12:20:02.562Z,13.20
2023-03-22T12:22:35.355Z,13.44
2023-03-22T12:25:03.617Z,12.68
2023-03-22T12:27:41.723Z,12.77
2023-03-22T12:30:22.674Z,12.56
2023-03-22T12:32:58.416Z,12.71
2023-03-22T12:35:30.185Z,13.10
2023-03-22T12:38:00.446Z,13.05
2023-03-22T12:40:38.044Z,12.88
2023-03-22T12:43:23.162Z,12.76
2023-03-22T12:45:55.293Z,12.64
2023-03-22T12:48:31.811Z,12.81
2023-03-22T12:51:03.325Z,12.90
2023-03-22T12:53:42.665Z,12.88
2023-03-22T12:56:17.926Z,12.70
2023-03-22T12:58:51.933Z,12.63
2023-03-22T13:01:45.886Z,12.71
2023-03-22T13:04:38.897Z,12.93
2023-03-22T13:07:13.978Z,12.98
2023-03-22T13:09:46.152Z,12.88
2023-03-22T13:12:16.455Z,13.31
2023-03-22T13:14:52.217Z,12.91
2023-03-22T13:17:25.436Z,13.32
2023-03-22T13:20:08.059Z,13.08
2023-03-22T13:22:38.044Z,13.16
2023-03-22T13:25:12.649Z,13.65
2023-03-22T13:27:45.358Z,13.60
2023-03-22T13:30:26.123Z,13.30
2023-03-22T13:33:11.200Z,13.45
2023-03-22T13:35:49.034Z,12.86
2023-03-22T13:38:32.619Z,12.93
2023-03-22T13:41:05.045Z,12.83
2023-03-22T13:43:50.192Z,13.08
2023-03-22T13:46:20.663Z,13.33
2023-03-22T13:48:47.917Z,13.37
2023-03-22T13:51:21.668Z,12.91
2023-03-22T13:54:24.018Z,13.40
2023-03-22T13:57:01.041Z,13.49
2023-03-22T13:59:27.904Z,13.68
2023-03-22T14:01:57.593Z,13.28
2023-03-22T14:04:36.556Z,12.77
2023-03-22T14:07:40.662Z,12.79
2023-03-22T14:10:28.301Z,12.73
2023-03-22T14:12:59.643Z,12.59
2023-03-22T14:15:31.512Z,11.78
2023-03-22T14:18:12.558Z,11.59
2023-03-22T14:20:40.219Z,11.39
